Detailed Flight Report of Ismail DUMAN ;
Number CXD029 
Departure Aerodrome LTFJ 
Arrival Aerodrome LHBP

Map generated by the Great Circle Mapper - copyright © Karl L. Swartz.

Pilot In Command CXD029 : Ismail Duman
Aircraft B738 / TC-KRD
Date Of Flight 2019-11-11
Departure Time 22:35 UTC
Arrival Time 00:20 UTC
Block Time 01:45
Distance 650 Nm.
Used Fuel 9,199 Lbs.
   
Detailed Flight Log [2019/11/11 22:58:00]
Flight IATA:C001
Pilot Number:029
Company ICAO:CXD
Aircraft Type:B738
Aircraft Registration:TC-KRD
Departing Airport: LTFJ
Destination Airport: LHBP
Alternate Airport:LOWW
Online: No
Route:UDBU Q26 DEGET DCT ABONY
Flight Level:FL360
No pause
22:58 Zero fuel Weight: 132094 Lbs, Fuel Weight: 16957 Lbs
22:58 VATSIM:LTFJ 102220Z 06003KT CAVOK 15/10 Q1017 NOSIG
22:58 VATSIM:LHBP 102230Z 27009KT 9000 BKN009 07/06 Q1014 BECMG NSC
22:58 V2= 255 Knots
22:58 Take-off
22:58 Take off Weight: 149044 Lbs
22:58 Wind: 209º @ 018 Knots Heading: 242º
22:58 POS N40º 49´ 16´´ E029º 05´ 43´´
22:58 N11 66 N12 66
22:58 Gear Up: 255 Knots
23:13 Wind:197º@043 Knots Heading: 355º Ground Speed: 505 Knots Altitude 29822 ft
23:17 TOC
23:17 Fuel Weight: 13681 Lb
23:28 Wind:197º@054 Knots Heading: 307º Ground Speed: 474 Knots Altitude 36079 ft
23:43 Wind:196º@058 Knots
Heading: 312º Ground Speed: 483 Knots Altitude 36049 ft
23:58 Wind:195º@053 Knots Heading: 298º Ground Speed: 471 Knots Altitude 36095 ft
00:05 TOD
00:05 Fuel Weight: 9499 Lb
00:13 Wind:206º@026 Knots Heading: 307º Ground Speed: 382 Knots Altitude 21190 ft
00:27 Flaps:1º at 203 Knots
00:27 Flaps:2º at 192 Knots
00:28 Wind:282º@012 Knots Heading: 310º Ground Speed: 177 Knots Altitude 3992 ft
00:28 Flaps:5º at 187 Knots
00:28 Flaps:10º at 186 Knots
00:29 Gear Down: 166 Knots
00:29 Flaps:15º at 154 Knots
00:30 Flaps:25º at 148 Knots
00:30 Flaps:30º at 148 Knots
00:30 Flaps:Full at 144 Knots
00:33 TouchDown:Rate -355 ft/min Speed: 140 Knots
00:33 VATSIM:LHBP 110000Z 27009KT 9999 SCT018 07/05 Q1015 NOSIG
00:33 Land
00:33 Wind:270º@009 Knots
00:33 Heading: 312º
00:33 Flight Duration: 01:35
00:33 Landing Weight: 140231 Lbs
00:33 POS N47º 25´ 53´´ E019º 16´ 52´´

00:43 Parking brakes on
00:43 Block to Block Duration: 01:45
00:43 Final Fuel: 7757 Lbls
00:43 Spent Fuel: 9199 Lbls
00:43 Flight Length: 650 NM
00:43 TOD Land Length: 139 NM

Text Link of Flight Log http://www.candanair.net/acars/logs/CXD02920191111225800.txt
   

[ Back ]